Time,TemperatureF,DewpointF,PressureIn,WindDirection,WindDirectionDegrees,WindSpeedMPH,WindSpeedGustMPH,Humidity,HourlyPrecipIn,Conditions,Clouds,dailyrainin,SoftwareType,DateUTC
2013-06-22 00:28:00,65.8,65.2,29.85,SE,136,7.0,7.0,98,0.00,,,0.00,Wunderground v.1.15,2013-06-22 05:28:00,
2013-06-22 00:59:00,65.5,64.6,29.82,East,99,5.0,7.0,97,0.00,,,0.00,Wunderground v.1.15,2013-06-22 05:59:00,
2013-06-22 01:29:00,65.6,64.7,29.83,SE,143,1.0,1.0,97,0.00,,,0.00,Wunderground v.1.15,2013-06-22 06:29:00,
2013-06-22 01:59:00,65.6,64.4,29.86,SE,146,1.0,1.0,96,0.00,,,0.00,Wunderground v.1.15,2013-06-22 06:59:00,
2013-06-22 02:29:00,66.0,64.8,29.94,West,262,3.0,3.0,96,0.00,,,0.00,Wunderground v.1.15,2013-06-22 07:29:00,
2013-06-22 02:58:00,65.6,64.7,29.95,SW,236,1.0,4.0,97,0.00,,,0.00,Wunderground v.1.15,2013-06-22 07:58:00,
2013-06-22 03:29:00,66.0,64.8,29.97,West,277,5.0,5.0,96,0.00,,,0.00,Wunderground v.1.15,2013-06-22 08:29:00,
2013-06-22 03:59:00,65.8,64.9,29.96,ESE,104,1.0,1.0,97,0.00,,,0.00,Wunderground v.1.15,2013-06-22 08:59:00,
2013-06-22 04:29:00,66.0,65.1,29.97,WNW,293,2.0,2.0,97,0.00,,,0.00,Wunderground v.1.15,2013-06-22 09:29:00,
2013-06-22 04:59:00,66.1,65.2,29.98,WSW,239,2.0,2.0,97,0.00,,,0.00,Wunderground v.1.15,2013-06-22 09:59:00,
2013-06-22 05:29:00,65.6,65.0,29.90,ENE,68,14.0,14.0,98,0.00,,,0.00,Wunderground v.1.15,2013-06-22 10:29:00,
2013-06-22 05:59:00,66.0,65.1,29.92,ESE,120,5.0,5.0,97,0.00,,,0.00,Wunderground v.1.15,2013-06-22 10:59:00,
2013-06-22 06:29:00,66.1,65.2,29.92,ENE,61,1.0,3.0,97,0.00,,,0.00,Wunderground v.1.15,2013-06-22 11:29:00,
2013-06-22 06:59:00,66.0,64.8,29.95,SE,128,3.0,4.0,96,0.00,,,0.00,Wunderground v.1.15,2013-06-22 11:59:00,
2013-06-22 07:29:00,66.3,65.1,29.97,East,98,2.0,6.0,96,0.00,,,0.00,Wunderground v.1.15,2013-06-22 12:29:00,
2013-06-22 07:58:00,66.0,65.1,29.87,East,88,10.0,10.0,97,0.00,,,0.00,Wunderground v.1.15,2013-06-22 12:58:00,
2013-06-22 08:28:00,66.3,65.4,29.91,East,96,5.0,7.0,97,0.00,,,0.00,Wunderground v.1.15,2013-06-22 13:28:00,
2013-06-22 08:59:00,67.1,66.2,29.91,SE,129,3.0,3.0,97,0.00,,,0.00,Wunderground v.1.15,2013-06-22 13:59:00,
2013-06-22 09:28:00,68.6,67.1,29.91,SSE,159,4.0,5.0,95,0.00,,,0.00,Wunderground v.1.15,2013-06-22 14:28:00,
2013-06-22 09:58:00,70.1,67.3,29.90,SE,143,2.0,4.0,91,0.00,,,0.00,Wunderground v.1.15,2013-06-22 14:58:00,
2013-06-22 10:28:00,71.3,67.2,29.90,SSE,149,1.0,5.0,87,0.00,,,0.00,Wunderground v.1.15,2013-06-22 15:28:00,
2013-06-22 10:58:00,72.0,66.9,29.90,SE,137,3.0,3.0,84,0.00,,,0.00,Wunderground v.1.15,2013-06-22 15:58:00,
2013-06-22 11:28:00,72.8,65.9,29.92,SE,128,4.0,4.0,79,0.00,,,0.00,Wunderground v.1.15,2013-06-22 16:28:00,
2013-06-22 11:59:00,74.2,66.5,29.91,SE,145,1.0,1.0,77,0.00,,,0.00,Wunderground v.1.15,2013-06-22 16:59:00,
2013-06-22 12:28:00,75.3,64.8,29.90,ESE,106,1.0,1.0,70,0.00,,,0.00,Wunderground v.1.15,2013-06-22 17:28:00,
2013-06-22 12:58:00,75.3,64.8,29.90,SSE,161,1.0,1.0,70,0.00,,,0.00,Wunderground v.1.15,2013-06-22 17:58:00,
2013-06-22 13:28:00,75.8,65.3,29.88,SSE,167,1.0,1.0,70,0.00,,,0.00,Wunderground v.1.15,2013-06-22 18:28:00,
2013-06-22 13:58:00,75.6,64.7,29.89,East,86,2.0,2.0,69,0.00,,,0.00,Wunderground v.1.15,2013-06-22 18:58:00,
2013-06-22 14:28:00,75.3,65.6,29.88,ESE,107,4.0,4.0,72,0.00,,,0.00,Wunderground v.1.15,2013-06-22 19:28:00,
2013-06-22 14:58:00,75.4,66.5,29.89,East,101,2.0,2.0,74,0.00,,,0.00,Wunderground v.1.15,2013-06-22 19:58:00,
2013-06-22 15:28:00,75.6,66.7,29.87,ESE,111,5.0,5.0,74,0.00,,,0.00,Wunderground v.1.15,2013-06-22 20:28:00,
2013-06-22 15:58:00,77.6,66.2,29.88,East,85,5.0,5.0,68,0.00,,,0.00,Wunderground v.1.15,2013-06-22 20:58:00,
2013-06-22 16:28:00,77.9,66.9,29.87,ENE,66,5.0,5.0,69,0.00,,,0.00,Wunderground v.1.15,2013-06-22 21:28:00,
2013-06-22 16:58:00,78.5,67.9,29.86,East,80,5.0,5.0,70,0.00,,,0.00,Wunderground v.1.15,2013-06-22 21:58:00,
2013-06-22 17:28:00,78.6,67.6,29.85,ESE,107,6.0,6.0,69,0.00,,,0.00,Wunderground v.1.15,2013-06-22 22:28:00,
2013-06-22 17:58:00,78.3,68.5,29.84,East,91,7.0,7.0,72,0.00,,,0.00,Wunderground v.1.15,2013-06-22 22:58:00,
2013-06-22 18:28:00,77.9,68.9,29.83,East,80,7.0,7.0,74,0.00,,,0.00,Wunderground v.1.15,2013-06-22 23:28:00,
2013-06-22 18:58:00,77.4,69.2,29.85,East,80,1.0,1.0,76,0.00,,,0.00,Wunderground v.1.15,2013-06-22 23:58:00,
2013-06-22 19:28:00,76.1,69.8,29.83,East,92,4.0,6.0,81,0.00,,,0.00,Wunderground v.1.15,2013-06-23 00:28:00,
2013-06-22 19:58:00,75.8,70.3,29.82,SE,126,7.0,7.0,83,0.00,,,0.00,Wunderground v.1.15,2013-06-23 00:58:00,
2013-06-22 20:28:00,75.3,69.8,29.81,ESE,108,1.0,1.0,83,0.00,,,0.00,Wunderground v.1.15,2013-06-23 01:28:00,
2013-06-22 20:58:00,74.6,70.1,29.81,ESE,108,4.0,4.0,86,0.00,,,0.00,Wunderground v.1.15,2013-06-23 01:58:00,
2013-06-22 21:28:00,74.0,69.9,29.82,ESE,118,5.0,5.0,87,0.00,,,0.00,Wunderground v.1.15,2013-06-23 02:28:00,
2013-06-22 21:58:00,73.3,69.5,29.82,ESE,119,5.0,5.0,88,0.00,,,0.00,Wunderground v.1.15,2013-06-23 02:58:00,
2013-06-22 22:28:00,73.2,68.8,29.83,SE,137,5.0,5.0,86,0.00,,,0.00,Wunderground v.1.15,2013-06-23 03:28:00,
2013-06-22 22:58:00,72.5,68.4,29.84,ESE,122,5.0,5.0,87,0.00,,,0.00,Wunderground v.1.15,2013-06-23 03:58:00,
2013-06-22 23:28:00,72.0,68.6,29.84,SE,128,5.0,5.0,89,0.00,,,0.00,Wunderground v.1.15,2013-06-23 04:28:00,
2013-06-22 23:59:00,71.5,67.8,29.85,ESE,110,5.0,9.0,88,0.00,,,0.00,Wunderground v.1.15,2013-06-23 04:59:00,